Time;durP1;ratioP1;P1;durP2;ratioP2;P2;SDS_P1;SDS_P2;PMS_P1;PMS_P2;Temp;Humidity;BMP_temperature;BMP_pressure;BME280_temperature;BME280_humidity;BME280_pressure;Samples;Min_cycle;Max_cycle;Signal;HPM_P1;HPM_P2
2022/10/04 00:00:41;;;;;;;4.05;1.95;;;;;;;10.41;100.00;102079.00;6128119;29;20074;-76
2022/10/04 00:03:46;;;;;;;2.72;2.25;;;;;;;10.42;100.00;102079.84;6127742;29;20055;-76
2022/10/04 00:06:55;;;;;;;3.35;1.60;;;;;;;10.39;100.00;102079.94;6128326;29;20131;-76
2022/10/04 00:09:59;;;;;;;3.88;1.67;;;;;;;10.38;100.00;102078.22;6127796;29;20055;-76
2022/10/04 00:13:05;;;;;;;4.72;1.73;;;;;;;10.37;100.00;102068.63;6127878;29;20052;-75
2022/10/04 00:16:07;;;;;;;3.30;1.35;;;;;;;10.40;100.00;102084.28;6127533;29;20051;-76
2022/10/04 00:19:37;;;;;;;2.95;2.13;;;;;;;10.45;100.00;102090.28;6127882;29;20052;-76
2022/10/04 00:23:19;;;;;;;3.28;1.63;;;;;;;10.50;100.00;102082.25;6127617;29;20512;-76
2022/10/04 00:27:01;;;;;;;6.57;1.92;;;;;;;10.54;100.00;102068.13;6127233;29;20052;-76
2022/10/04 00:30:22;;;;;;;3.42;1.50;;;;;;;10.56;100.00;102061.03;6104535;29;20054;-76
2022/10/04 00:33:34;;;;;;;5.75;1.73;;;;;;;10.55;100.00;102057.53;6127331;29;20084;-75
2022/10/04 00:36:45;;;;;;;3.13;1.75;;;;;;;10.56;100.00;102074.16;6126848;29;20052;-76
2022/10/04 00:39:58;;;;;;;3.88;1.90;;;;;;;10.57;100.00;102082.00;6126930;29;20047;-76
2022/10/04 00:43:03;;;;;;;4.53;1.60;;;;;;;10.57;100.00;102060.97;6127116;29;20407;-76
2022/10/04 00:46:07;;;;;;;4.30;1.77;;;;;;;10.56;100.00;102051.38;6126640;29;20417;-75
2022/10/04 00:49:12;;;;;;;2.58;1.70;;;;;;;10.58;100.00;102044.31;6127252;29;20048;-76
2022/10/04 00:52:18;;;;;;;5.72;2.05;;;;;;;10.59;100.00;102026.75;6126683;29;20500;-76
2022/10/04 00:55:32;;;;;;;1.55;1.15;;;;;;;10.58;100.00;102035.53;6126675;29;20416;-75
2022/10/04 00:58:39;;;;;;;4.80;1.90;;;;;;;10.59;100.00;102027.63;6126966;29;20051;-77
2022/10/04 01:01:44;;;;;;;3.60;1.45;;;;;;;10.60;100.00;102045.09;6126893;29;20047;-76
2022/10/04 01:04:51;;;;;;;2.92;1.33;;;;;;;10.60;100.00;102047.72;6126336;29;20062;-76
2022/10/04 01:07:58;;;;;;;5.75;1.65;;;;;;;10.61;100.00;102044.19;6126909;29;20044;-76
2022/10/04 01:11:04;;;;;;;2.45;1.35;;;;;;;10.61;100.00;102043.34;6126489;29;20060;-76
2022/10/04 01:14:11;;;;;;;4.82;1.20;;;;;;;10.59;100.00;102038.13;6137521;28;20051;-76
2022/10/04 01:17:12;;;;;;;2.17;1.27;;;;;;;10.59;100.00;102027.63;6150504;29;20518;-76
2022/10/04 01:20:30;;;;;;;5.57;1.55;;;;;;;10.60;100.00;102028.47;6150097;29;20051;-76
2022/10/04 01:23:45;;;;;;;2.65;1.90;;;;;;;10.61;100.00;102028.41;6149388;28;20194;-77
2022/10/04 01:26:47;;;;;;;2.63;1.38;;;;;;;10.58;100.00;102036.44;6150739;29;20065;-77
2022/10/04 01:29:48;;;;;;;2.67;1.15;;;;;;;10.59;100.00;102038.13;6149716;29;20459;-77
2022/10/04 01:32:51;;;;;;;4.47;1.83;;;;;;;10.57;100.00;102037.31;6150209;29;20047;-76
2022/10/04 01:35:52;;;;;;;2.53;1.15;;;;;;;10.57;100.00;102036.44;6149608;28;20070;-76
2022/10/04 01:38:56;;;;;;;6.28;2.17;;;;;;;10.54;100.00;102026.91;6149847;29;20487;-75
2022/10/04 01:42:03;;;;;;;2.83;1.25;;;;;;;10.54;100.00;102033.94;6149701;29;20639;-77
2022/10/04 01:45:12;;;;;;;2.90;2.13;;;;;;;10.51;100.00;102028.78;6149384;28;20533;-76
2022/10/04 01:48:17;;;;;;;7.13;1.60;;;;;;;10.47;100.00;102027.16;6149056;28;20055;-76
2022/10/04 01:51:23;;;;;;;4.07;1.60;;;;;;;10.47;100.00;102020.13;6149520;29;20291;-77
2022/10/04 01:54:34;;;;;;;1.30;1.10;;;;;;;10.46;100.00;102017.56;6149313;28;20051;-76
2022/10/04 01:57:40;;;;;;;1.90;1.40;;;;;;;10.45;100.00;102005.34;6150049;29;20054;-76
2022/10/04 02:00:47;;;;;;;5.65;1.65;;;;;;;10.43;100.00;101996.63;6141881;29;20519;-76
2022/10/04 02:03:56;;;;;;;3.05;1.65;;;;;;;10.41;100.00;102002.78;6125489;29;20047;-76
2022/10/04 02:07:00;;;;;;;1.67;1.30;;;;;;;10.41;100.00;101988.81;6125614;29;20058;-76
2022/10/04 02:10:06;;;;;;;2.55;1.20;;;;;;;10.38;100.00;101999.41;6125306;29;20052;-76
2022/10/04 02:13:10;;;;;;;4.00;1.10;;;;;;;10.43;100.00;101984.34;6125635;29;20062;-77
2022/10/04 02:16:12;;;;;;;2.00;1.42;;;;;;;10.43;100.00;101988.75;6125616;29;20059;-75
2022/10/04 02:19:16;;;;;;;2.78;1.23;;;;;;;10.43;100.00;101980.84;6125553;29;20047;-76
2022/10/04 02:22:18;;;;;;;3.08;1.30;;;;;;;10.39;100.00;101980.94;6125308;29;20655;-77
2022/10/04 02:25:22;;;;;;;3.75;1.20;;;;;;;10.37;100.00;101981.91;6125558;29;20052;-76
2022/10/04 02:28:24;;;;;;;3.95;1.50;;;;;;;10.36;100.00;101988.09;6125501;29;20048;-76
2022/10/04 02:34:47;;;;;;;3.15;1.20;;;;;;;10.32;100.00;101970.72;6125378;29;20086;-77
2022/10/04 02:37:54;;;;;;;1.35;1.20;;;;;;;10.33;100.00;101970.66;6125699;29;20504;-76
2022/10/04 02:41:01;;;;;;;3.03;1.40;;;;;;;10.33;100.00;101961.91;6122697;29;20048;-76
2022/10/04 02:44:09;;;;;;;2.63;1.00;;;;;;;10.34;100.00;101959.22;6125262;29;20439;-76
2022/10/04 02:47:16;;;;;;;2.00;1.30;;;;;;;10.37;100.00;101951.25;6125000;29;20048;-76
2022/10/04 02:50:29;;;;;;;4.65;1.67;;;;;;;10.40;100.00;101945.91;6125201;29;20527;-76
2022/10/04 02:53:41;;;;;;;3.30;1.90;;;;;;;10.40;100.00;101956.41;6125260;29;20134;-75
2022/10/04 02:56:44;;;;;;;4.30;1.48;;;;;;;10.40;100.00;101951.16;6125505;29;20048;-76
2022/10/04 02:59:46;;;;;;;1.60;1.30;;;;;;;10.39;100.00;101948.56;6126329;29;20070;-76
2022/10/04 03:03:26;;;;;;;2.35;1.23;;;;;;;10.38;100.00;101939.81;6129664;29;20060;-77
2022/10/04 03:06:32;;;;;;;4.18;1.38;;;;;;;10.40;100.00;101940.63;6114890;29;20069;-76
2022/10/04 03:09:36;;;;;;;2.88;1.27;;;;;;;10.39;100.00;101941.53;6129306;29;20515;-76
2022/10/04 03:12:40;;;;;;;2.95;1.40;;;;;;;10.40;100.00;101940.63;6129477;29;20066;-76
2022/10/04 03:15:42;;;;;;;1.45;0.98;;;;;;;10.37;100.00;101934.63;6128843;29;20047;-76
2022/10/04 03:18:46;;;;;;;8.15;1.48;;;;;;;10.36;100.00;101931.13;6129473;29;20510;-76
2022/10/04 03:21:51;;;;;;;1.85;1.42;;;;;;;10.33;100.00;101931.22;6128892;29;20059;-76
2022/10/04 03:24:55;;;;;;;1.35;1.10;;;;;;;10.30;100.00;101933.94;6128624;29;20051;-77
2022/10/04 03:28:01;;;;;;;1.98;1.30;;;;;;;10.28;100.00;101924.41;6129162;29;20051;-76
2022/10/04 03:31:03;;;;;;;3.08;1.20;;;;;;;10.27;100.00;101922.72;6128836;29;20055;-76
2022/10/04 03:34:05;;;;;;;6.38;1.88;;;;;;;10.24;100.00;101922.78;6128883;29;20059;-76
2022/10/04 03:37:09;;;;;;;2.97;1.58;;;;;;;10.22;100.00;101914.94;6128206;29;20048;-76
2022/10/04 03:40:12;;;;;;;4.07;1.35;;;;;;;10.20;100.00;101913.25;6127999;29;20066;-76
2022/10/04 03:43:15;;;;;;;2.35;1.30;;;;;;;10.16;100.00;101918.63;6128099;29;20123;-76
2022/10/04 03:46:18;;;;;;;2.85;1.17;;;;;;;10.13;100.00;101912.63;6128391;29;20072;-76
2022/10/04 03:49:35;;;;;;;3.25;1.42;;;;;;;10.13;100.00;101910.84;6127676;29;20043;-76
2022/10/04 03:52:37;;;;;;;3.95;1.75;;;;;;;10.11;100.00;101909.16;6127003;29;20146;-76
2022/10/04 03:55:42;;;;;;;3.85;1.38;;;;;;;10.07;100.00;101907.56;6126432;29;20719;-77
2022/10/04 03:58:46;;;;;;;2.97;1.50;;;;;;;10.04;100.00;101921.66;6125098;29;20047;-76
2022/10/04 04:01:50;;;;;;;1.98;1.25;;;;;;;10.04;100.00;101918.19;6126549;29;20059;-77
2022/10/04 04:05:03;;;;;;;1.80;1.20;;;;;;;10.01;100.00;101921.75;6126376;29;20055;-76
2022/10/04 04:08:11;;;;;;;7.45;1.52;;;;;;;10.02;100.00;101920.84;6126665;29;20047;-76
2022/10/04 04:11:21;;;;;;;2.00;1.50;;;;;;;10.01;100.00;101918.25;6127004;29;20058;-75
2022/10/04 04:14:27;;;;;;;2.15;1.77;;;;;;;10.04;100.00;101908.53;6127449;29;20393;-75
2022/10/04 04:17:37;;;;;;;2.40;1.63;;;;;;;10.03;100.00;101909.41;6128183;29;20059;-76
2022/10/04 04:20:43;;;;;;;4.55;1.50;;;;;;;10.06;100.00;101911.94;6127648;29;20055;-76
2022/10/04 04:23:47;;;;;;;3.47;1.52;;;;;;;10.06;100.00;101913.72;6127585;29;20396;-76
2022/10/04 04:26:53;;;;;;;4.40;1.88;;;;;;;10.08;100.00;101925.03;6127730;29;20051;-76
2022/10/04 04:30:00;;;;;;;4.65;1.52;;;;;;;10.09;100.00;101929.38;6127554;29;20052;-76
2022/10/04 04:33:09;;;;;;;4.38;1.45;;;;;;;10.06;100.00;101935.59;6127666;29;20051;-75
2022/10/04 04:36:12;;;;;;;2.97;1.60;;;;;;;10.06;100.00;101930.34;6127272;29;20409;-75
2022/10/04 04:39:36;;;;;;;3.67;1.85;;;;;;;10.03;100.00;101927.78;6127386;29;20048;-76
2022/10/04 04:42:38;;;;;;;3.60;1.65;;;;;;;10.01;100.00;101919.13;6127353;29;20054;-75
2022/10/04 04:45:41;;;;;;;4.78;1.40;;;;;;;10.01;100.00;101913.88;6127021;29;20052;-76
2022/10/04 04:48:44;;;;;;;2.92;1.33;;;;;;;10.01;100.00;101907.75;6126300;29;20456;-76
2022/10/04 04:51:50;;;;;;;3.08;1.60;;;;;;;10.01;100.00;101915.63;6122926;29;20048;-76
2022/10/04 04:54:52;;;;;;;3.70;1.90;;;;;;;9.99;100.00;101914.81;6125175;29;20052;-76
2022/10/04 04:57:56;;;;;;;2.75;1.55;;;;;;;9.99;100.00;101917.44;6125449;29;20398;-76
2022/10/04 05:01:03;;;;;;;6.05;1.73;;;;;;;10.00;100.00;101912.16;6125295;29;20044;-75
2022/10/04 05:04:06;;;;;;;2.08;1.42;;;;;;;10.00;100.00;101922.66;6125071;29;20051;-75
2022/10/04 05:07:18;;;;;;;5.65;1.75;;;;;;;10.01;100.00;101920.88;6123666;29;20048;-76
2022/10/04 05:10:31;;;;;;;7.70;2.75;;;;;;;10.00;100.00;101919.19;6124692;29;20431;-76
2022/10/04 05:13:37;;;;;;;2.60;1.88;;;;;;;9.96;100.00;101915.78;6123857;29;20173;-76
2022/10/04 05:16:44;;;;;;;8.48;2.20;;;;;;;9.95;100.00;101919.31;6124582;29;20052;-75
2022/10/04 05:19:46;;;;;;;5.45;2.85;;;;;;;9.96;100.00;101928.91;6122436;29;20054;-75
2022/10/04 05:22:49;;;;;;;4.97;1.98;;;;;;;9.96;100.00;101925.44;6124840;29;20058;-76
2022/10/04 05:25:51;;;;;;;2.83;2.10;;;;;;;9.94;100.00;101930.72;6124703;29;20488;-75
2022/10/04 05:28:53;;;;;;;8.30;2.20;;;;;;;9.93;100.00;101929.00;6124716;29;20051;-76
2022/10/04 05:32:04;;;;;;;2.03;1.48;;;;;;;9.89;100.00;101927.38;6124365;29;20058;-77
2022/10/04 05:35:16;;;;;;;3.58;1.95;;;;;;;9.88;100.00;101921.28;6121705;29;20776;-75
2022/10/04 05:38:26;;;;;;;1.40;1.30;;;;;;;9.90;100.00;101913.34;6124718;29;20052;-75
2022/10/04 05:41:35;;;;;;;2.72;1.83;;;;;;;9.89;100.00;101906.38;6122323;29;20389;-76
2022/10/04 05:44:46;;;;;;;6.15;1.92;;;;;;;9.90;100.00;101908.09;6124009;29;20051;-75
2022/10/04 05:47:51;;;;;;;4.30;1.92;;;;;;;9.91;100.00;101904.56;6122284;29;20043;-75
2022/10/04 05:50:52;;;;;;;3.35;1.90;;;;;;;9.93;100.00;101915.88;6124275;29;20048;-76
2022/10/04 05:53:56;;;;;;;5.15;2.10;;;;;;;9.94;100.00;101920.22;6124165;29;20051;-76
2022/10/04 05:57:20;;;;;;;3.25;2.35;;;;;;;9.95;100.00;101928.94;6124771;29;20051;-75
2022/10/04 06:00:33;;;;;;;7.85;2.28;;;;;;;9.97;100.00;101932.41;6123915;29;20048;-75
2022/10/04 06:04:01;;;;;;;4.97;2.45;;;;;;;9.99;100.00;101927.94;6126022;29;20048;-76
2022/10/04 06:07:14;;;;;;;3.42;1.75;;;;;;;10.01;100.00;101928.78;6125885;29;20055;-77
2022/10/04 06:10:36;;;;;;;8.25;2.35;;;;;;;10.04;100.00;101920.81;6125667;29;20044;-76
2022/10/04 06:14:06;;;;;;;5.65;2.20;;;;;;;10.07;100.00;101915.44;6125725;29;20420;-76
2022/10/04 06:17:27;;;;;;;5.05;2.53;;;;;;;10.11;100.00;101922.31;6125596;29;20106;-76
2022/10/04 06:21:06;;;;;;;4.75;2.50;;;;;;;10.13;100.00;101920.50;6125445;29;20058;-76
2022/10/04 06:24:12;;;;;;;8.25;1.77;;;;;;;10.15;100.00;101922.16;6104110;29;20055;-76
2022/10/04 06:27:19;;;;;;;3.45;1.90;;;;;;;10.19;100.00;101920.28;6125756;29;20055;-76
2022/10/04 06:30:21;;;;;;;4.47;1.92;;;;;;;10.21;100.00;101920.22;6125039;29;20393;-75
2022/10/04 06:33:34;;;;;;;5.07;1.85;;;;;;;10.24;100.00;101915.78;6125465;29;20047;-75
2022/10/04 06:37:05;;;;;;;2.35;1.63;;;;;;;10.28;100.00;101916.53;6129425;29;20389;-75
2022/10/04 06:40:30;;;;;;;4.90;3.05;;;;;;;10.29;100.00;101916.47;6129710;29;20496;-76
2022/10/04 06:43:46;;;;;;;6.90;2.25;;;;;;;10.32;100.00;101923.41;6130022;29;20048;-76
2022/10/04 06:46:50;;;;;;;6.30;2.35;;;;;;;10.32;100.00;101916.38;6130174;29;20059;-77
2022/10/04 06:50:00;;;;;;;5.47;2.20;;;;;;;10.37;100.00;101911.81;6129589;29;20059;-76
2022/10/04 06:53:20;;;;;;;5.45;2.58;;;;;;;10.36;100.00;101915.38;6129955;29;20087;-76
2022/10/04 06:56:30;;;;;;;;;;;;;;;10.39;100.00;101919.66;6129903;29;20123;-76
2022/10/04 06:59:44;;;;;;;5.40;2.05;;;;;;;10.39;100.00;101912.63;6130084;29;19929;-77
2022/10/04 07:02:50;;;;;;;4.00;2.15;;;;;;;10.39;100.00;101923.13;6131364;29;20050;-76
2022/10/04 07:05:55;;;;;;;2.85;2.05;;;;;;;10.41;100.00;101926.59;6123865;29;20055;-75
2022/10/04 07:09:04;;;;;;;7.15;2.28;;;;;;;10.43;100.00;101925.66;6131077;29;20058;-77
2022/10/04 07:12:08;;;;;;;4.53;2.03;;;;;;;10.44;100.00;101924.75;6138856;29;20048;-77
2022/10/04 07:15:19;;;;;;;7.20;2.10;;;;;;;10.46;100.00;101936.09;6128794;29;20397;-77
2022/10/04 07:18:27;;;;;;;3.58;2.05;;;;;;;10.44;100.00;101925.59;6137685;29;20533;-75
2022/10/04 07:21:48;;;;;;;5.50;2.30;;;;;;;10.45;100.00;101929.13;6131613;29;20130;-76
2022/10/04 07:25:03;;;;;;;5.10;1.92;;;;;;;10.44;100.00;101919.50;6129025;29;20052;-76
2022/10/04 07:31:36;;;;;;;3.00;2.00;;;;;;;10.51;100.00;101914.00;6127245;29;20091;-75
2022/10/04 07:34:45;;;;;;;3.60;2.03;;;;;;;10.55;100.00;101914.75;6136128;28;20070;-76
2022/10/04 07:37:53;;;;;;;4.55;1.67;;;;;;;10.60;100.00;101912.81;6126225;29;20050;-76
2022/10/04 07:41:07;;;;;;;5.55;2.70;;;;;;;10.62;100.00;101918.88;6127782;29;20044;-76
2022/10/04 07:44:15;;;;;;;3.33;1.92;;;;;;;10.66;100.00;101928.38;6126298;29;20051;-75
2022/10/04 07:47:20;;;;;;;4.68;1.73;;;;;;;10.72;100.00;101930.81;6126780;29;20401;-76
2022/10/04 07:50:25;;;;;;;3.58;1.95;;;;;;;10.81;100.00;101932.22;6125472;29;20171;-76
2022/10/04 07:53:32;;;;;;;5.05;2.22;;;;;;;10.91;100.00;101939.75;6137797;29;20079;-76
2022/10/04 07:56:41;;;;;;;8.73;2.30;;;;;;;11.00;100.00;101929.81;6128668;29;20048;-74
2022/10/04 07:59:53;;;;;;;3.63;1.85;;;;;;;11.08;100.00;101923.38;6127444;29;20059;-77
2022/10/04 08:03:14;;;;;;;4.68;2.08;;;;;;;11.18;100.00;101926.50;6134461;29;20055;-76
2022/10/04 08:06:22;;;;;;;2.80;2.10;;;;;;;11.27;100.00;101927.94;6131851;29;20056;-77
2022/10/04 08:09:33;;;;;;;7.32;2.05;;;;;;;11.30;100.00;101928.66;6124726;29;20048;-77
2022/10/04 08:12:49;;;;;;;3.30;1.67;;;;;;;11.32;100.00;101931.25;6140730;29;20047;-78
2022/10/04 08:15:52;;;;;;;4.45;1.73;;;;;;;11.31;100.00;101929.53;6140140;29;20051;-76
2022/10/04 08:19:09;;;;;;;4.60;1.77;;;;;;;11.28;100.00;101935.78;6127076;29;20051;-77
2022/10/04 08:22:22;;;;;;;2.20;1.52;;;;;;;11.29;100.00;101932.22;6136074;29;20062;-76
2022/10/04 08:25:31;;;;;;;3.92;2.13;;;;;;;11.32;100.00;101932.13;6134961;29;20048;-76
2022/10/04 08:32:09;;;;;;;5.65;2.90;;;;;;;11.43;100.00;101922.03;6131604;29;20043;-77
2022/10/04 08:35:39;;;;;;;1.77;1.20;;;;;;;11.53;100.00;101926.94;6124517;29;20134;-76
2022/10/04 08:38:46;;;;;;;5.70;2.28;;;;;;;11.58;100.00;101920.59;6116247;29;20063;-76
2022/10/04 08:42:12;;;;;;;4.22;2.10;;;;;;;11.66;100.00;101922.91;6126412;29;20054;-77
2022/10/04 08:45:52;;;;;;;3.83;2.00;;;;;;;11.76;100.00;101924.28;6126783;29;20519;-77
2022/10/04 08:49:21;;;;;;;4.13;1.92;;;;;;;11.85;100.00;101921.31;6127363;29;20499;-76
2022/10/04 08:52:58;;;;;;;4.38;1.73;;;;;;;11.94;100.00;101917.44;6126872;29;20044;-77
2022/10/04 08:56:16;;;;;;;3.22;2.22;;;;;;;12.05;100.00;101909.13;6119853;29;20051;-76
2022/10/04 08:59:37;;;;;;;7.53;2.70;;;;;;;12.18;100.00;101900.66;6126886;29;20058;-77
2022/10/04 09:03:13;;;;;;;9.00;2.38;;;;;;;12.34;100.00;101900.84;6127022;29;20056;-76
2022/10/04 09:06:49;;;;;;;5.57;2.10;;;;;;;12.49;100.00;101909.91;6125649;29;20058;-76
2022/10/04 09:10:18;;;;;;;1.70;1.40;;;;;;;12.61;100.00;101900.59;6119874;29;20051;-77
2022/10/04 09:13:42;;;;;;;2.78;1.95;;;;;;;12.70;100.00;101892.28;6103293;29;20048;-77
2022/10/04 09:16:46;;;;;;;3.28;2.00;;;;;;;12.84;100.00;101884.63;6103324;29;20402;-76
2022/10/04 09:19:56;;;;;;;3.78;2.08;;;;;;;12.86;100.00;101890.69;6102871;29;20077;-77
2022/10/04 09:23:08;;;;;;;6.10;1.80;;;;;;;12.87;100.00;101888.91;6123495;29;20063;-76
2022/10/04 09:26:21;;;;;;;5.88;2.10;;;;;;;12.84;100.00;101889.03;6126321;29;20051;-77
2022/10/04 09:29:45;;;;;;;5.00;2.50;;;;;;;12.82;100.00;101885.63;6126621;29;20574;-76
2022/10/04 09:33:04;;;;;;;3.45;1.80;;;;;;;12.83;100.00;101893.47;6126312;29;20059;-76
2022/10/04 09:36:32;;;;;;;4.20;1.70;;;;;;;12.86;100.00;101892.47;6125898;29;20122;-77
2022/10/04 09:39:53;;;;;;;10.23;2.42;;;;;;;12.94;100.00;101888.59;6124402;29;20044;-76
2022/10/04 09:43:27;;;;;;;5.28;1.90;;;;;;;12.99;100.00;101883.09;6129923;29;20063;-76
2022/10/04 09:46:53;;;;;;;4.60;1.67;;;;;;;13.10;100.00;101886.09;6115053;29;20055;-77
2022/10/04 09:50:17;;;;;;;7.13;2.25;;;;;;;13.24;100.00;101887.28;6125198;29;20071;-76
2022/10/04 09:53:43;;;;;;;3.42;1.63;;;;;;;13.30;100.00;101879.91;6131011;28;20051;-75
2022/10/04 09:57:08;;;;;;;7.78;2.10;;;;;;;13.40;100.00;101869.81;6133279;29;20546;-76
2022/10/04 10:00:21;;;;;;;3.20;1.75;;;;;;;13.47;100.00;101860.66;6145412;29;20392;-77
2022/10/04 10:03:57;;;;;;;7.50;1.63;;;;;;;13.60;100.00;101868.84;6149571;28;20051;-77
2022/10/04 10:07:12;;;;;;;2.95;2.05;;;;;;;13.61;100.00;101852.06;6113136;29;20052;-76
2022/10/04 10:14:05;;;;;;;2.58;1.45;;;;;;;13.78;100.00;101849.47;6130302;29;20048;-76
2022/10/04 10:17:16;;;;;;;2.13;1.00;;;;;;;13.90;100.00;101848.88;6130203;29;20052;-76
2022/10/04 10:20:42;;;;;;;3.00;1.30;;;;;;;14.00;100.00;101846.63;6127489;29;20134;-77
2022/10/04 10:24:03;;;;;;;3.60;1.85;;;;;;;14.12;100.00;101842.47;6119492;29;20448;-76
2022/10/04 10:27:23;;;;;;;2.97;1.50;;;;;;;14.16;100.00;101844.88;6125855;29;20055;-75
2022/10/04 10:30:31;;;;;;;4.63;1.63;;;;;;;14.28;100.00;101848.72;6102599;29;20123;-77
2022/10/04 10:33:45;;;;;;;7.32;1.38;;;;;;;14.35;97.19;101858.06;6113360;29;20043;-77
2022/10/04 10:37:07;;;;;;;5.53;1.13;;;;;;;14.43;96.70;101852.34;6126219;29;20664;-77
2022/10/04 10:40:37;;;;;;;2.35;0.90;;;;;;;14.54;96.94;101857.13;6123947;29;20122;-77
2022/10/04 10:43:52;;;;;;;3.10;1.38;;;;;;;14.62;94.19;101849.63;6125431;29;20044;-77
2022/10/04 10:47:12;;;;;;;1.92;1.25;;;;;;;14.76;93.40;101843.59;6126290;29;20055;-77
2022/10/04 10:50:57;;;;;;;3.47;1.42;;;;;;;14.84;94.37;101846.69;6129527;29;20043;-77
2022/10/04 10:54:23;;;;;;;3.72;1.15;;;;;;;14.90;91.95;101841.09;6129514;29;20416;-77
2022/10/04 10:57:47;;;;;;;4.40;1.30;;;;;;;15.01;89.77;101832.56;6120454;29;20521;-75
2022/10/04 11:00:59;;;;;;;2.70;1.48;;;;;;;15.02;88.53;101832.47;6122121;29;20067;-76
2022/10/04 11:04:17;;;;;;;3.72;1.40;;;;;;;15.08;90.93;101834.81;6126838;29;20952;-77
2022/10/04 11:07:40;;;;;;;4.47;1.80;;;;;;;15.26;88.30;101835.59;6128103;29;20520;-75
2022/10/04 11:11:21;;;;;;;7.28;1.58;;;;;;;15.29;88.63;101835.38;6126102;29;20052;-76
2022/10/04 11:14:48;;;;;;;4.32;2.10;;;;;;;15.43;86.83;101831.97;6117323;29;20048;-75
2022/10/04 11:18:14;;;;;;;4.97;1.60;;;;;;;15.59;88.99;101819.56;6126980;29;20044;-76
2022/10/04 11:21:51;;;;;;;1.65;1.35;;;;;;;15.78;87.41;101821.19;6126892;29;20178;-77
2022/10/04 11:25:28;;;;;;;3.47;1.23;;;;;;;15.90;85.53;101817.84;6126647;29;20055;-78
2022/10/04 11:28:41;;;;;;;4.63;1.83;;;;;;;16.12;84.43;101812.94;6126616;29;20079;-77
2022/10/04 11:32:17;;;;;;;5.00;1.40;;;;;;;16.20;83.19;101813.34;6124957;29;20044;-76
2022/10/04 11:36:00;;;;;;;4.25;1.77;;;;;;;16.42;80.67;101814.72;6124723;29;20050;-75
2022/10/04 11:39:26;;;;;;;6.35;1.48;;;;;;;16.52;82.32;101799.09;6104425;29;20048;-77
2022/10/04 11:42:47;;;;;;;4.95;1.45;;;;;;;16.72;83.58;101801.41;6125719;29;20047;-77
2022/10/04 11:46:08;;;;;;;1.67;1.25;;;;;;;16.96;78.40;101797.19;6125413;29;20055;-76
2022/10/04 11:49:36;;;;;;;3.40;1.42;;;;;;;17.18;75.80;101798.50;6125046;29;20056;-76
2022/10/04 11:53:02;;;;;;;4.43;1.10;;;;;;;17.13;76.05;101792.63;6111841;29;20514;-76
2022/10/04 11:56:28;;;;;;;2.58;1.35;;;;;;;17.36;76.75;101797.31;6123328;29;20043;-76
2022/10/04 11:59:44;;;;;;;1.58;0.93;;;;;;;17.47;76.96;101784.16;6126299;29;20396;-76
2022/10/04 12:03:26;;;;;;;4.22;1.30;;;;;;;17.30;75.75;101780.88;6128081;29;20055;-76
2022/10/04 12:06:49;;;;;;;4.40;1.52;;;;;;;17.58;78.26;101769.31;6127615;29;20492;-76
2022/10/04 12:10:02;;;;;;;4.30;1.60;;;;;;;17.70;76.00;101756.03;6127538;29;20047;-76
2022/10/04 12:13:46;;;;;;;5.10;1.80;;;;;;;17.86;73.82;101753.25;6126894;29;20118;-76
2022/10/04 12:17:17;;;;;;;3.00;1.50;;;;;;;18.17;76.99;101748.50;6126575;29;20052;-74
2022/10/04 12:20:52;;;;;;;1.95;0.98;;;;;;;18.34;74.59;101748.13;6125525;29;20056;-76
2022/10/04 12:24:09;;;;;;;3.38;1.38;;;;;;;18.52;73.61;101746.00;6125460;29;20083;-76
2022/10/04 12:27:43;;;;;;;2.42;1.33;;;;;;;18.49;73.26;101738.25;6127504;29;20047;-74
2022/10/04 12:31:07;;;;;;;3.63;1.00;;;;;;;18.68;73.13;101735.13;6119387;29;20050;-77
2022/10/04 12:34:18;;;;;;;3.70;1.08;;;;;;;18.78;69.35;101728.19;6126453;29;20052;-77
2022/10/04 12:37:28;;;;;;;4.50;1.48;;;;;;;18.92;71.10;101721.88;6129486;29;20051;-76
2022/10/04 12:40:36;;;;;;;2.28;0.93;;;;;;;19.00;71.73;101709.69;6126871;29;20051;-76
2022/10/04 12:43:49;;;;;;;2.78;1.20;;;;;;;18.92;67.05;101703.22;6126238;29;20052;-76
2022/10/04 12:47:00;;;;;;;1.17;0.73;;;;;;;19.04;69.56;101709.47;6126187;29;20463;-77
2022/10/04 12:50:16;;;;;;;5.20;1.65;;;;;;;19.18;69.86;101707.47;6126899;29;20055;-76
2022/10/04 12:53:30;;;;;;;2.25;1.15;;;;;;;19.32;69.61;101703.78;6127107;29;20416;-76
2022/10/04 12:56:42;;;;;;;5.07;0.98;;;;;;;19.27;66.47;101700.63;6126659;29;20055;-76
2022/10/04 12:59:54;;;;;;;1.48;0.93;;;;;;;19.38;67.32;101710.47;6126799;29;20052;-77
2022/10/04 13:03:22;;;;;;;3.15;0.93;;;;;;;19.62;68.88;101706.00;6127211;29;20058;-76
2022/10/04 13:06:35;;;;;;;5.13;1.00;;;;;;;19.73;65.07;101708.66;6126591;29;20415;-77
2022/10/04 13:09:47;;;;;;;2.83;0.80;;;;;;;19.56;64.59;101700.22;6126805;29;20052;-77
2022/10/04 13:13:12;;;;;;;4.95;1.58;;;;;;;19.64;62.74;101687.19;6123848;29;20048;-77
2022/10/04 13:16:26;;;;;;;1.40;0.68;;;;;;;19.74;65.82;101693.50;6125318;29;20039;-77
2022/10/04 13:19:35;;;;;;;2.10;1.10;;;;;;;19.91;64.10;101695.72;6125945;29;20087;-77
2022/10/04 13:22:41;;;;;;;;;;;;;;;19.96;62.07;101687.38;6126912;29;20048;-77
2022/10/04 13:26:06;;;;;;;5.30;1.23;;;;;;;19.85;63.21;101688.22;6126354;29;20375;-76
2022/10/04 13:29:20;;;;;;;1.27;0.90;;;;;;;20.00;61.16;101691.50;6126195;29;20061;-77
2022/10/04 13:32:26;;;;;;;2.72;1.00;;;;;;;19.87;62.67;101677.41;6125819;29;20054;-76
2022/10/04 13:35:35;;;;;;;3.70;0.90;;;;;;;19.93;62.24;101671.59;6124636;29;20619;-77
2022/10/04 13:38:53;;;;;;;3.38;0.90;;;;;;;19.94;62.75;101665.28;6125184;29;20047;-77
2022/10/04 13:42:08;;;;;;;2.78;0.98;;;;;;;20.19;63.85;101656.22;6121556;29;20054;-76
2022/10/04 13:45:23;;;;;;;2.83;1.15;;;;;;;20.37;62.40;101656.56;6122003;29;20047;-78
2022/10/04 13:48:41;;;;;;;5.95;1.42;;;;;;;20.42;59.46;101651.69;6124764;29;20055;-77
2022/10/04 13:56:35;;;;;;;4.85;1.55;;;;;;;20.45;59.81;101652.31;6123773;29;20055;-77
2022/10/04 13:58:52;;;;;;;1.35;1.00;;;;;;;20.22;61.77;101635.47;6126139;29;20083;-75
2022/10/04 14:02:28;;;;;;;2.13;0.93;;;;;;;20.37;59.25;101630.72;6125880;29;20070;-78
2022/10/04 14:06:05;;;;;;;4.53;1.35;;;;;;;20.34;62.18;101619.41;6125609;29;20111;-78
2022/10/04 14:09:34;;;;;;;1.75;0.75;;;;;;;20.35;63.55;101632.66;6125964;29;20066;-77
2022/10/04 14:13:04;;;;;;;2.63;1.70;;;;;;;20.16;61.69;101624.41;6125641;29;20519;-77
2022/10/04 14:16:45;;;;;;;1.05;0.88;;;;;;;20.03;63.73;101621.91;6125554;29;20499;-75
2022/10/04 14:20:24;;;;;;;1.55;0.70;;;;;;;19.54;62.50;101601.69;6104558;29;20059;-77
2022/10/04 14:24:08;;;;;;;2.17;0.88;;;;;;;19.55;61.95;101599.88;6056749;29;20500;-77
2022/10/04 14:27:32;;;;;;;2.38;1.17;;;;;;;19.29;62.71;101600.06;6102134;29;20055;-76
2022/10/04 14:30:43;;;;;;;1.70;0.75;;;;;;;19.15;63.32;101613.59;6101797;29;20052;-77
2022/10/04 14:34:12;;;;;;;1.85;0.98;;;;;;;19.00;62.01;101618.25;6099951;29;20059;-77
2022/10/04 14:37:27;;;;;;;;;;;;;;;18.92;66.27;101617.97;6100676;29;20048;-77
2022/10/04 14:41:00;;;;;;;4.75;1.50;;;;;;;18.85;65.13;101603.41;6112353;29;20394;-76
2022/10/04 14:44:37;;;;;;;1.20;0.80;;;;;;;18.80;64.29;101600.22;6121656;29;20496;-75
2022/10/04 14:48:23;;;;;;;2.22;1.00;;;;;;;18.73;65.78;101614.00;6125361;29;20051;-77
2022/10/04 14:51:41;;;;;;;1.58;0.73;;;;;;;18.58;65.68;101609.81;6052203;29;20060;-77
2022/10/04 14:54:51;;;;;;;4.78;1.00;;;;;;;18.57;68.73;101615.22;6125045;29;20062;-75
2022/10/04 14:58:06;;;;;;;7.78;1.05;;;;;;;18.59;67.70;101621.28;6129970;29;20063;-75
2022/10/04 15:01:19;;;;;;;4.88;1.20;;;;;;;18.50;69.46;101623.66;6129514;29;20056;-77
2022/10/04 15:04:32;;;;;;;2.53;1.10;;;;;;;18.46;70.46;101608.88;6126238;29;20058;-75
2022/10/04 15:07:38;;;;;;;1.70;0.95;;;;;;;18.41;72.45;101612.84;6129190;29;20500;-77
2022/10/04 15:10:49;;;;;;;2.33;1.20;;;;;;;18.31;72.51;101599.34;6128640;29;20059;-77
2022/10/04 15:13:54;;;;;;;2.97;1.27;;;;;;;18.21;73.24;101588.53;6128273;29;20055;-77
2022/10/04 15:16:59;;;;;;;2.30;1.10;;;;;;;18.19;73.62;101586.91;6129295;29;20052;-77